Time;durP1;ratioP1;P1;durP2;ratioP2;P2;SDS_P1;SDS_P2;PMS_P1;PMS_P2;Temp;Humidity;BMP_temperature;BMP_pressure;BME280_temperature;BME280_humidity;BME280_pressure;Samples;Min_cycle;Max_cycle;Signal;HPM_P1;HPM_P2
2023/03/21 00:02:58;;;;;;;16.98;8.43;;;;;;;6.72;92.60;99841.13;6324828;28;20044;-75
2023/03/21 00:06:05;;;;;;;18.05;9.85;;;;;;;6.79;91.87;99852.84;6324650;28;20040;-75
2023/03/21 00:09:06;;;;;;;17.90;9.48;;;;;;;6.79;91.42;99845.06;6324231;28;20044;-70
2023/03/21 00:12:08;;;;;;;16.20;9.52;;;;;;;6.74;90.69;99841.06;6324364;28;20546;-71
2023/03/21 00:15:11;;;;;;;19.20;10.48;;;;;;;6.68;92.22;99842.19;6324452;28;20040;-70
2023/03/21 00:18:12;;;;;;;15.82;8.63;;;;;;;6.68;92.78;99843.94;6323662;28;20032;-71
2023/03/21 00:21:18;;;;;;;17.38;9.48;;;;;;;6.64;92.62;99841.47;6322922;28;20089;-71
2023/03/21 00:24:21;;;;;;;20.52;10.48;;;;;;;6.67;93.45;99845.66;6323231;28;20108;-71
2023/03/21 00:27:22;;;;;;;13.73;8.70;;;;;;;6.72;93.69;99843.72;6323906;28;20109;-70
2023/03/21 00:30:23;;;;;;;20.98;9.50;;;;;;;6.78;94.32;99842.56;6323853;28;20071;-71
2023/03/21 00:33:27;;;;;;;14.45;9.07;;;;;;;6.78;93.87;99840.00;6324194;28;20044;-75
2023/03/21 00:36:33;;;;;;;13.55;9.43;;;;;;;6.82;94.00;99841.50;6323422;28;20084;-75
2023/03/21 00:39:37;;;;;;;15.25;10.02;;;;;;;6.85;94.69;99842.19;6321864;28;20147;-72
2023/03/21 00:42:37;;;;;;;14.90;8.93;;;;;;;6.90;94.26;99830.75;6322465;28;20410;-75
2023/03/21 00:45:38;;;;;;;19.75;10.27;;;;;;;6.91;94.54;99835.88;6322279;28;20066;-71
2023/03/21 00:48:39;;;;;;;15.93;9.93;;;;;;;6.95;94.83;99827.00;6323644;28;20407;-70
2023/03/21 00:51:43;;;;;;;15.40;9.65;;;;;;;6.96;95.31;99831.31;6323300;28;20067;-71
2023/03/21 00:54:44;;;;;;;16.70;10.35;;;;;;;6.98;95.00;99826.88;6321466;28;20060;-71
2023/03/21 00:57:45;;;;;;;18.63;10.95;;;;;;;6.91;94.18;99824.66;6323096;28;20105;-71
2023/03/21 01:00:47;;;;;;;18.17;9.40;;;;;;;6.95;95.54;99821.00;6322219;28;20385;-75
2023/03/21 01:03:49;;;;;;;29.13;10.70;;;;;;;6.90;95.70;99815.19;6323785;28;20412;-75
2023/03/21 01:06:51;;;;;;;15.20;9.43;;;;;;;6.92;95.08;99819.41;6323401;28;20131;-75
2023/03/21 01:09:52;;;;;;;27.23;10.27;;;;;;;6.92;95.98;99822.00;6322183;28;20040;-75
2023/03/21 01:12:53;;;;;;;18.05;11.23;;;;;;;6.92;94.63;99819.41;6323296;28;20047;-71
2023/03/21 01:15:55;;;;;;;20.35;10.73;;;;;;;6.97;94.03;99817.41;6322831;28;20052;-70
2023/03/21 01:18:56;;;;;;;23.00;10.90;;;;;;;6.89;93.06;99814.34;6321511;28;20504;-70
2023/03/21 01:21:58;;;;;;;22.02;11.25;;;;;;;6.93;92.70;99817.63;6321727;28;20487;-75
2023/03/21 01:24:59;;;;;;;28.20;12.18;;;;;;;6.93;92.22;99813.28;6321654;28;20048;-75
2023/03/21 01:28:00;;;;;;;22.60;10.98;;;;;;;6.98;93.17;99810.44;6321760;28;20040;-75
2023/03/21 01:31:02;;;;;;;25.17;11.63;;;;;;;6.96;93.83;99807.97;6320520;28;20404;-71
2023/03/21 01:34:02;;;;;;;26.55;12.02;;;;;;;7.01;92.69;99802.53;6321512;28;20044;-70
2023/03/21 01:37:03;;;;;;;21.15;11.32;;;;;;;6.98;91.66;99793.16;6322589;28;20059;-75
2023/03/21 01:40:05;;;;;;;22.80;11.50;;;;;;;6.93;91.76;99794.28;6322548;28;20119;-71
2023/03/21 01:43:22;;;;;;;18.83;11.52;;;;;;;6.79;94.25;99787.19;6322458;28;20044;-70
2023/03/21 01:46:41;;;;;;;27.60;11.15;;;;;;;6.74;92.97;99791.78;6321342;28;20420;-71
2023/03/21 01:49:46;;;;;;;20.88;12.13;;;;;;;6.56;96.53;99791.75;6320579;28;20120;-75
2023/03/21 01:52:48;;;;;;;27.45;11.23;;;;;;;6.44;96.96;99792.34;6322880;28;20032;-75
2023/03/21 01:55:49;;;;;;;17.25;10.63;;;;;;;6.45;95.95;99789.69;6322487;28;20064;-71
2023/03/21 01:58:56;;;;;;;14.40;9.38;;;;;;;6.43;95.05;99783.72;6321284;28;20044;-75
2023/03/21 02:02:06;;;;;;;16.65;9.07;;;;;;;6.41;93.66;99788.16;6322600;28;20658;-70
2023/03/21 02:05:09;;;;;;;20.48;10.90;;;;;;;6.31;92.49;99778.31;6321865;28;20892;-71
2023/03/21 02:08:12;;;;;;;20.67;11.18;;;;;;;6.30;92.23;99782.66;6320815;28;20101;-71
2023/03/21 02:11:12;;;;;;;25.13;10.48;;;;;;;6.26;92.88;99781.13;6322149;28;20119;-75
2023/03/21 02:14:16;;;;;;;18.05;9.93;;;;;;;6.26;91.91;99775.94;6322157;28;20540;-70
2023/03/21 02:17:47;;;;;;;21.70;11.45;;;;;;;6.17;92.32;99784.13;6322328;28;20048;-75
2023/03/21 02:20:51;;;;;;;16.67;10.38;;;;;;;6.02;93.35;99790.88;6321479;28;20454;-71
2023/03/21 02:24:16;;;;;;;17.45;10.20;;;;;;;6.01;94.24;99792.63;6321922;28;20040;-75
2023/03/21 02:27:22;;;;;;;27.38;11.38;;;;;;;6.03;94.65;99795.13;6320733;28;20048;-71
2023/03/21 02:30:35;;;;;;;18.58;11.10;;;;;;;5.95;93.51;99795.50;6320504;28;20040;-75
2023/03/21 02:33:54;;;;;;;23.08;11.10;;;;;;;5.99;94.15;99797.03;6322292;28;20048;-75
2023/03/21 02:37:21;;;;;;;18.20;9.85;;;;;;;5.97;94.33;99793.69;6321720;28;20403;-75
2023/03/21 02:40:52;;;;;;;26.88;10.95;;;;;;;5.94;94.02;99791.19;6312410;28;20515;-71
2023/03/21 02:44:06;;;;;;;19.45;10.77;;;;;;;5.98;93.70;99791.94;6325367;28;20476;-71
2023/03/21 02:47:20;;;;;;;27.17;10.10;;;;;;;5.97;93.20;99796.28;6325098;28;20131;-75
2023/03/21 02:50:31;;;;;;;20.20;11.85;;;;;;;5.97;93.76;99800.59;6326642;28;20048;-75
2023/03/21 02:53:36;;;;;;;16.92;11.07;;;;;;;5.99;93.05;99793.59;6325216;28;20067;-71
2023/03/21 02:56:39;;;;;;;18.13;11.35;;;;;;;5.96;92.90;99797.16;6326145;28;20119;-70
2023/03/21 02:59:41;;;;;;;24.08;11.55;;;;;;;5.98;93.18;99795.34;6325024;28;20056;-73
2023/03/21 03:02:42;;;;;;;22.50;11.88;;;;;;;5.98;92.50;99790.16;6324947;28;20044;-70
2023/03/21 03:05:47;;;;;;;16.17;9.55;;;;;;;6.00;91.88;99790.09;6325850;28;20051;-71
2023/03/21 03:09:03;;;;;;;22.25;11.45;;;;;;;6.01;91.83;99791.78;6325890;28;20526;-70
2023/03/21 03:12:30;;;;;;;20.70;11.73;;;;;;;6.03;92.00;99797.72;6325633;28;20087;-70
2023/03/21 03:15:59;;;;;;;20.63;11.10;;;;;;;5.98;92.19;99791.94;6326397;28;20044;-74
2023/03/21 03:19:01;;;;;;;22.58;11.63;;;;;;;5.97;92.08;99793.69;6326151;28;20051;-75
2023/03/21 03:22:22;;;;;;;17.58;10.07;;;;;;;5.92;93.01;99798.19;6325801;28;20473;-74
2023/03/21 03:25:47;;;;;;;19.35;11.05;;;;;;;5.94;93.76;99795.53;6325287;28;20066;-71
2023/03/21 03:28:52;;;;;;;26.42;12.13;;;;;;;5.94;94.30;99792.94;6325551;28;20051;-71
2023/03/21 03:31:59;;;;;;;25.38;10.68;;;;;;;5.88;94.79;99791.47;6324999;28;20040;-71
2023/03/21 03:35:03;;;;;;;18.15;10.50;;;;;;;5.88;94.79;99788.06;6325614;28;20040;-71
2023/03/21 03:38:07;;;;;;;23.17;12.13;;;;;;;5.82;96.51;99791.75;6325581;28;20071;-75
2023/03/21 03:41:13;;;;;;;24.15;11.75;;;;;;;5.85;95.87;99789.03;6323987;28;20468;-71
2023/03/21 03:44:14;;;;;;;22.05;12.13;;;;;;;5.70;96.91;99794.91;6323866;28;20051;-71
2023/03/21 03:47:39;;;;;;;20.45;11.23;;;;;;;5.80;96.05;99790.97;6325173;28;20044;-75
2023/03/21 03:50:47;;;;;;;25.05;10.95;;;;;;;5.90;96.37;99787.06;6323663;28;20135;-71
2023/03/21 03:54:03;;;;;;;24.52;13.63;;;;;;;5.96;96.70;99786.81;6323989;28;20051;-71
2023/03/21 03:57:05;;;;;;;24.10;12.95;;;;;;;5.99;96.35;99778.91;6323804;28;20055;-75
2023/03/21 04:00:13;;;;;;;;;;;;;;;6.06;96.50;99787.22;6323705;28;20522;-75
2023/03/21 04:03:14;;;;;;;16.48;10.70;;;;;;;6.07;96.62;99772.53;6324604;28;20256;-75
2023/03/21 04:06:16;;;;;;;19.05;11.45;;;;;;;6.07;96.87;99788.06;6325140;28;20048;-75
2023/03/21 04:09:17;;;;;;;20.17;11.20;;;;;;;5.93;96.48;99784.34;6324877;28;20043;-71
2023/03/21 04:12:18;;;;;;;26.80;13.50;;;;;;;5.86;96.68;99785.53;6324225;28;20076;-70
2023/03/21 04:15:19;;;;;;;24.40;11.25;;;;;;;5.76;97.50;99792.03;6323272;28;20046;-75
2023/03/21 04:18:21;;;;;;;19.05;10.73;;;;;;;5.77;98.27;99797.16;6323059;28;20044;-70
2023/03/21 04:21:22;;;;;;;;;;;;;;;5.86;98.09;99807.06;6324750;28;20040;-70
2023/03/21 04:24:26;;;;;;;18.60;8.57;;;;;;;5.85;98.03;99809.75;6323376;28;19920;-75
2023/03/21 04:27:27;;;;;;;22.63;10.93;;;;;;;5.83;97.94;99812.41;6322926;28;20062;-70
2023/03/21 04:30:28;;;;;;;18.70;11.38;;;;;;;5.90;97.28;99810.38;6324012;28;20044;-71
2023/03/21 04:33:29;;;;;;;26.85;10.98;;;;;;;5.88;95.73;99813.94;6322414;28;20059;-75
2023/03/21 04:36:32;;;;;;;19.60;11.70;;;;;;;5.81;95.74;99818.56;6323451;28;20044;-71
2023/03/21 04:39:33;;;;;;;22.38;12.07;;;;;;;5.87;94.93;99820.88;6323891;28;20047;-75
2023/03/21 04:42:34;;;;;;;25.38;12.23;;;;;;;5.81;95.96;99816.81;6322737;28;20123;-71
2023/03/21 04:45:35;;;;;;;17.83;9.85;;;;;;;5.92;95.99;99820.66;6321995;28;20052;-71
2023/03/21 04:48:36;;;;;;;22.00;9.32;;;;;;;5.90;95.24;99827.66;6323819;28;20481;-75
2023/03/21 04:51:38;;;;;;;16.20;9.90;;;;;;;5.96;94.68;99833.44;6323963;28;20043;-75
2023/03/21 04:54:38;;;;;;;20.60;9.85;;;;;;;6.02;93.64;99821.97;6322567;28;20074;-75
2023/03/21 04:57:39;;;;;;;16.90;9.70;;;;;;;6.01;93.01;99818.53;6322487;28;20047;-75
2023/03/21 05:00:40;;;;;;;16.88;9.82;;;;;;;6.05;92.74;99821.81;6322302;28;20036;-71
2023/03/21 05:03:41;;;;;;;15.52;9.82;;;;;;;5.98;94.02;99829.03;6321683;28;20131;-70
2023/03/21 05:06:45;;;;;;;24.83;9.05;;;;;;;6.00;93.23;99827.19;6322888;28;20046;-70
2023/03/21 05:09:45;;;;;;;16.13;9.32;;;;;;;5.99;93.58;99825.53;6323234;28;20044;-75
2023/03/21 05:12:49;;;;;;;16.45;9.90;;;;;;;6.11;92.70;99829.28;6322246;28;20051;-75
2023/03/21 05:15:49;;;;;;;21.38;10.10;;;;;;;6.10;92.89;99830.22;6321993;28;20043;-75
2023/03/21 05:18:51;;;;;;;16.02;8.63;;;;;;;6.06;94.35;99833.84;6323184;28;20047;-70
2023/03/21 05:21:52;;;;;;;21.23;10.18;;;;;;;6.03;93.27;99821.91;6322884;28;20097;-71
2023/03/21 05:24:54;;;;;;;15.38;9.02;;;;;;;6.14;92.16;99820.56;6322239;28;20048;-72
2023/03/21 05:27:55;;;;;;;14.70;8.10;;;;;;;6.08;91.40;99813.06;6322917;28;20593;-75
2023/03/21 05:30:55;;;;;;;15.10;8.32;;;;;;;6.03;92.48;99806.34;6321961;28;20040;-75
2023/03/21 05:33:56;;;;;;;15.18;8.60;;;;;;;6.07;92.42;99821.75;6322909;28;20048;-71
2023/03/21 05:36:57;;;;;;;15.23;8.45;;;;;;;6.07;92.22;99811.38;6322556;28;20399;-75
2023/03/21 05:39:58;;;;;;;18.35;8.52;;;;;;;6.16;92.12;99829.09;6322473;28;20048;-75
2023/03/21 05:42:58;;;;;;;15.20;8.85;;;;;;;6.21;91.47;99830.53;6321048;28;20047;-70
2023/03/21 05:45:59;;;;;;;17.65;9.27;;;;;;;6.31;91.37;99828.38;6320813;28;20059;-75
2023/03/21 05:49:00;;;;;;;16.63;9.65;;;;;;;6.44;90.67;99823.44;6322867;28;20142;-75
2023/03/21 05:52:01;;;;;;;16.17;8.93;;;;;;;6.49;90.01;99824.06;6321585;28;20033;-75
2023/03/21 05:55:04;;;;;;;17.73;9.60;;;;;;;6.65;88.80;99824.16;6321246;28;20044;-70
2023/03/21 05:58:05;;;;;;;17.33;9.32;;;;;;;6.77;90.90;99825.31;6322212;28;20052;-75
2023/03/21 06:01:06;;;;;;;16.13;8.85;;;;;;;6.81;90.86;99825.09;6321248;28;20043;-75
2023/03/21 06:04:07;;;;;;;20.48;10.23;;;;;;;6.85;88.69;99811.06;6322381;28;20051;-75
2023/03/21 06:07:08;;;;;;;21.38;9.60;;;;;;;6.93;89.65;99821.06;6322231;28;20048;-75
2023/03/21 06:10:09;;;;;;;18.70;9.23;;;;;;;7.04;89.22;99820.53;6321901;28;20048;-75
2023/03/21 06:13:10;;;;;;;15.10;9.27;;;;;;;7.26;88.81;99810.75;6321306;28;20040;-75
2023/03/21 06:16:11;;;;;;;18.83;9.23;;;;;;;7.53;88.14;99819.78;6323425;28;20551;-76
2023/03/21 06:19:12;;;;;;;18.02;9.02;;;;;;;7.77;84.59;99813.31;6326388;28;20036;-75
2023/03/21 06:22:13;;;;;;;14.90;8.48;;;;;;;7.99;83.54;99823.38;6325394;28;20044;-75
2023/03/21 06:25:14;;;;;;;13.30;7.78;;;;;;;8.17;83.80;99824.13;6326254;28;20040;-75
2023/03/21 06:28:15;;;;;;;14.68;7.95;;;;;;;8.22;82.14;99824.72;6325263;28;20128;-74
2023/03/21 06:31:16;;;;;;;17.55;9.18;;;;;;;8.31;80.89;99823.38;6326421;28;20036;-70
2023/03/21 06:34:17;;;;;;;17.30;9.55;;;;;;;8.36;81.90;99831.78;6324542;28;20542;-69
2023/03/21 06:37:18;;;;;;;21.13;9.90;;;;;;;8.28;81.31;99829.59;6324640;28;20123;-70
2023/03/21 06:40:21;;;;;;;18.77;9.57;;;;;;;8.34;79.47;99836.22;6325841;28;20124;-70
2023/03/21 06:43:22;;;;;;;15.30;8.93;;;;;;;8.44;80.05;99841.75;6325020;28;20040;-74
2023/03/21 06:46:23;;;;;;;16.73;9.20;;;;;;;8.49;80.33;99836.34;6324621;28;20403;-70
2023/03/21 06:49:25;;;;;;;22.52;9.48;;;;;;;8.67;81.05;99836.13;6325804;28;20499;-74
2023/03/21 06:52:26;;;;;;;17.08;9.50;;;;;;;8.97;79.05;99840.50;6325698;28;20067;-74
2023/03/21 06:55:27;;;;;;;14.98;8.32;;;;;;;9.31;78.10;99835.94;6325968;28;20937;-74
2023/03/21 06:58:28;;;;;;;15.52;8.25;;;;;;;9.44;74.45;99836.88;6325846;28;20047;-74
2023/03/21 07:01:29;;;;;;;17.90;9.75;;;;;;;9.66;75.01;99843.41;6325235;28;20048;-74
2023/03/21 07:04:30;;;;;;;18.23;10.00;;;;;;;9.74;74.79;99833.34;6325633;28;20048;-74
2023/03/21 07:07:31;;;;;;;19.15;9.82;;;;;;;9.84;76.34;99844.03;6325511;28;20093;-74
2023/03/21 07:10:32;;;;;;;25.38;12.15;;;;;;;9.98;75.39;99838.81;6325319;28;20039;-70
2023/03/21 07:13:32;;;;;;;15.07;9.02;;;;;;;10.05;75.72;99837.50;6324874;28;20044;-70
2023/03/21 07:16:33;;;;;;;17.42;10.45;;;;;;;9.98;75.26;99845.81;6325358;28;20451;-72
2023/03/21 07:19:34;;;;;;;20.85;11.10;;;;;;;10.06;76.62;99835.72;6324150;28;20040;-71
2023/03/21 07:22:35;;;;;;;31.63;10.35;;;;;;;10.28;76.32;99835.22;6324765;28;20036;-71
2023/03/21 07:25:38;;;;;;;18.25;10.80;;;;;;;10.25;76.39;99827.59;6323608;28;20471;-74
2023/03/21 07:28:39;;;;;;;17.75;10.25;;;;;;;10.64;76.06;99826.00;6324924;28;20078;-74
2023/03/21 07:31:40;;;;;;;17.50;10.18;;;;;;;11.19;75.64;99829.38;6323734;28;20119;-74
2023/03/21 07:34:41;;;;;;;18.33;10.90;;;;;;;11.28;73.60;99840.03;6324568;28;20064;-74
2023/03/21 07:37:42;;;;;;;22.30;10.98;;;;;;;11.39;70.77;99836.69;6324483;28;20055;-71
2023/03/21 07:40:44;;;;;;;19.83;10.07;;;;;;;11.66;71.58;99841.81;6324428;28;20046;-70
2023/03/21 07:43:45;;;;;;;19.63;11.13;;;;;;;11.80;69.01;99847.88;6323306;28;20044;-70
2023/03/21 07:46:45;;;;;;;16.88;9.77;;;;;;;11.92;68.18;99839.19;6322853;28;20453;-70
2023/03/21 07:49:46;;;;;;;18.65;9.77;;;;;;;12.33;68.15;99838.03;6322975;28;20038;-71
2023/03/21 07:52:47;;;;;;;15.57;9.65;;;;;;;12.34;67.90;99842.34;6324097;28;20044;-74
2023/03/21 07:55:55;;;;;;;16.35;10.20;;;;;;;12.56;67.52;99840.78;6324244;28;20044;-75
2023/03/21 07:58:57;;;;;;;20.73;10.52;;;;;;;12.60;67.66;99847.44;6324190;28;20040;-74
2023/03/21 08:01:58;;;;;;;;;;;;;;;12.80;67.43;99856.47;6324509;28;20051;-75
2023/03/21 08:04:59;;;;;;;25.00;10.65;;;;;;;13.14;64.78;99854.81;6323909;28;19920;-70
2023/03/21 08:08:01;;;;;;;25.67;10.77;;;;;;;13.12;63.98;99861.13;6322359;28;20047;-74
2023/03/21 08:11:03;;;;;;;17.77;10.00;;;;;;;13.22;62.02;99868.19;6323894;28;20036;-74
2023/03/21 08:14:04;;;;;;;22.40;9.57;;;;;;;13.43;60.84;99868.38;6323667;28;20035;-71
2023/03/21 08:17:08;;;;;;;17.00;9.88;;;;;;;13.63;59.99;99863.38;6323475;28;20499;-70
2023/03/21 08:20:12;;;;;;;17.13;9.63;;;;;;;13.29;59.65;99865.97;6322250;28;20039;-71
2023/03/21 08:23:13;;;;;;;14.60;9.18;;;;;;;13.67;60.60;99867.44;6322284;28;20036;-74
2023/03/21 08:26:18;;;;;;;15.25;9.73;;;;;;;14.14;59.15;99856.84;6323106;28;20467;-71
2023/03/21 08:29:20;;;;;;;14.32;9.10;;;;;;;14.31;56.81;99856.34;6323240;28;20110;-70
2023/03/21 08:32:27;;;;;;;16.95;9.88;;;;;;;14.38;59.22;99862.75;6323294;28;20040;-74
2023/03/21 08:35:30;;;;;;;20.20;10.93;;;;;;;14.40;59.91;99870.53;6321857;28;20040;-71
2023/03/21 08:38:33;;;;;;;25.92;11.98;;;;;;;14.82;58.96;99868.03;6321203;28;20032;-71
2023/03/21 08:41:36;;;;;;;21.27;10.85;;;;;;;15.08;57.94;99871.97;6322892;28;20408;-74
2023/03/21 08:44:38;;;;;;;22.58;12.10;;;;;;;15.16;56.61;99871.34;6321837;28;20450;-75
2023/03/21 08:47:39;;;;;;;23.88;10.68;;;;;;;15.40;55.14;99868.47;6322382;28;20075;-71
2023/03/21 08:50:40;;;;;;;30.63;11.73;;;;;;;14.48;56.92;99873.38;6322835;28;20126;-71
2023/03/21 08:53:42;;;;;;;17.45;10.25;;;;;;;15.27;56.21;99867.81;6321391;28;20445;-71
2023/03/21 08:56:43;;;;;;;;;;;;;;;15.77;54.28;99875.03;6321757;28;20044;-75
2023/03/21 08:59:44;;;;;;;14.95;10.13;;;;;;;15.69;54.26;99860.75;6322497;28;19920;-75
2023/03/21 09:02:48;;;;;;;23.00;9.80;;;;;;;15.61;54.05;99872.88;6322688;28;20044;-75
2023/03/21 09:05:52;;;;;;;16.00;10.38;;;;;;;15.54;53.49;99877.81;6321287;28;20040;-75
2023/03/21 09:08:55;;;;;;;18.50;11.63;;;;;;;16.00;53.93;99868.66;6321410;28;20040;-70
2023/03/21 09:11:56;;;;;;;17.90;10.27;;;;;;;16.25;53.09;99861.25;6322287;28;20040;-75
2023/03/21 09:14:58;;;;;;;23.77;10.60;;;;;;;16.02;51.91;99858.81;6321044;28;20093;-74
2023/03/21 09:18:11;;;;;;;18.05;10.25;;;;;;;16.05;53.30;99863.81;6321016;28;20044;-71
2023/03/21 09:21:15;;;;;;;22.05;10.65;;;;;;;16.12;52.78;99853.56;6322090;28;20082;-71
2023/03/21 09:24:16;;;;;;;21.20;10.95;;;;;;;16.17;53.24;99854.03;6321994;28;20044;-75
2023/03/21 09:27:21;;;;;;;15.35;10.38;;;;;;;16.74;53.03;99846.34;6321957;28;20117;-75
2023/03/21 09:30:22;;;;;;;18.35;11.13;;;;;;;17.38;51.35;99841.44;6322459;28;20070;-75
2023/03/21 09:33:24;;;;;;;19.65;10.30;;;;;;;17.37;50.43;99842.44;6320578;28;20044;-71
2023/03/21 09:36:26;;;;;;;18.83;10.25;;;;;;;17.19;49.20;99842.31;6321661;28;20051;-75
2023/03/21 09:39:27;;;;;;;26.35;9.63;;;;;;;17.04;49.32;99834.00;6321633;28;20040;-75
2023/03/21 09:42:55;;;;;;;12.60;9.00;;;;;;;17.23;49.21;99843.69;6320699;28;20066;-75
2023/03/21 09:46:03;;;;;;;16.38;9.70;;;;;;;17.17;48.78;99836.34;6320235;28;20055;-75
2023/03/21 09:49:15;;;;;;;21.55;9.68;;;;;;;17.18;48.65;99838.84;6321550;28;20040;-75
2023/03/21 09:52:25;;;;;;;21.05;9.13;;;;;;;17.41;46.80;99839.34;6320832;28;20385;-75
2023/03/21 09:55:31;;;;;;;15.23;9.23;;;;;;;17.30;45.91;99832.44;6312094;28;20054;-75
2023/03/21 09:58:39;;;;;;;17.85;10.10;;;;;;;17.40;50.57;99836.84;6292523;28;20076;-75
2023/03/21 10:01:44;;;;;;;13.02;6.95;;;;;;;17.40;46.87;99828.94;6294564;28;20049;-75
2023/03/21 10:04:45;;;;;;;11.45;6.45;;;;;;;17.57;43.54;99816.84;6295000;28;20044;-70
2023/03/21 10:07:55;;;;;;;11.33;6.57;;;;;;;17.70;44.69;99825.25;6295015;28;20397;-70
2023/03/21 10:11:02;;;;;;;9.45;6.35;;;;;;;18.50;41.58;99825.53;6295997;28;20041;-75
2023/03/21 10:14:15;;;;;;;24.88;6.53;;;;;;;19.10;40.70;99815.16;6295238;28;20075;-72
2023/03/21 10:17:25;;;;;;;10.40;5.85;;;;;;;19.07;39.50;99819.94;6294801;28;20048;-75
2023/03/21 10:20:37;;;;;;;13.32;8.27;;;;;;;19.43;42.07;99819.84;6296224;28;20564;-76
2023/03/21 10:23:38;;;;;;;;;;;;;;;18.74;42.70;99817.00;6295024;28;20036;-71
2023/03/21 10:26:39;;;;;;;12.77;7.75;;;;;;;18.39;41.74;99823.09;6295811;28;20228;-71
2023/03/21 10:29:43;;;;;;;17.20;8.52;;;;;;;18.43;44.03;99820.03;6294777;28;20037;-72
2023/03/21 10:32:44;;;;;;;18.00;7.50;;;;;;;18.55;43.20;99814.50;6294700;28;20446;-71
2023/03/21 10:35:50;;;;;;;9.40;5.60;;;;;;;17.90;40.90;99820.75;6294468;28;20101;-71
2023/03/21 10:38:56;;;;;;;10.75;5.20;;;;;;;17.50;41.40;99814.78;6293959;28;20068;-71
2023/03/21 10:41:59;;;;;;;10.98;5.63;;;;;;;18.30;40.90;99812.47;6295582;28;20119;-76
2023/03/21 10:45:01;;;;;;;10.95;5.70;;;;;;;18.12;40.72;99811.59;6294176;28;20049;-75
2023/03/21 10:48:06;;;;;;;14.82;6.10;;;;;;;18.49;41.55;99806.22;6295555;28;20045;-76
2023/03/21 10:51:08;;;;;;;11.93;5.05;;;;;;;18.47;42.03;99815.25;6295674;28;20041;-71
2023/03/21 10:54:16;;;;;;;11.10;5.15;;;;;;;18.70;41.34;99802.44;6304400;28;20434;-71
2023/03/21 10:57:22;;;;;;;8.23;5.10;;;;;;;19.58;40.74;99802.41;6320417;28;20136;-76
2023/03/21 11:00:35;;;;;;;11.43;6.90;;;;;;;19.52;41.38;99803.03;6319326;28;20399;-71
2023/03/21 11:03:42;;;;;;;8.32;5.38;;;;;;;19.58;39.35;99805.03;6323290;28;20089;-71
2023/03/21 11:07:08;;;;;;;12.10;5.18;;;;;;;19.75;40.08;99805.97;6324690;28;20040;-76
2023/03/21 11:10:15;;;;;;;8.88;5.05;;;;;;;20.15;38.51;99796.50;6325194;28;20411;-76
2023/03/21 11:13:23;;;;;;;7.72;4.50;;;;;;;20.12;38.28;99791.53;6325484;28;20040;-76
2023/03/21 11:16:31;;;;;;;12.32;4.88;;;;;;;20.16;39.52;99792.88;6323863;28;20079;-72
2023/03/21 11:19:34;;;;;;;16.17;7.80;;;;;;;20.38;38.30;99791.41;6324926;28;20051;-76
2023/03/21 11:22:41;;;;;;;12.32;6.22;;;;;;;20.73;38.57;99790.34;6323402;28;20051;-71
2023/03/21 11:25:42;;;;;;;16.48;6.88;;;;;;;20.42;38.09;99794.56;6324735;28;20085;-76
2023/03/21 11:28:45;;;;;;;9.15;4.72;;;;;;;20.21;37.95;99790.56;6323356;28;20093;-72
2023/03/21 11:31:46;;;;;;;10.98;6.05;;;;;;;20.23;37.93;99779.81;6324549;28;20411;-71
2023/03/21 11:34:50;;;;;;;8.43;5.63;;;;;;;20.36;38.37;99769.53;6324455;28;20040;-71
2023/03/21 11:37:55;;;;;;;7.78;5.25;;;;;;;20.73;38.17;99771.78;6322900;28;20043;-76
2023/03/21 11:40:59;;;;;;;9.15;4.03;;;;;;;20.48;38.69;99760.28;6324383;28;20476;-76
2023/03/21 11:44:02;;;;;;;9.23;5.85;;;;;;;20.26;38.09;99753.81;6324386;28;20068;-71
2023/03/21 11:47:03;;;;;;;8.55;5.30;;;;;;;20.65;37.03;99753.22;6322838;28;20052;-70
2023/03/21 11:50:22;;;;;;;10.27;5.93;;;;;;;20.60;37.65;99747.56;6322849;28;20059;-71
2023/03/21 11:53:49;;;;;;;11.60;6.20;;;;;;;20.81;36.39;99755.00;6324153;28;20480;-71
2023/03/21 11:56:53;;;;;;;11.73;4.28;;;;;;;19.70;36.43;99750.00;6322661;28;20059;-76
2023/03/21 12:00:12;;;;;;;6.47;3.65;;;;;;;19.66;37.22;99752.16;6323990;28;20051;-76
2023/03/21 12:03:44;;;;;;;7.45;4.15;;;;;;;20.43;35.76;99743.25;6323615;28;20039;-71
2023/03/21 12:06:55;;;;;;;8.30;4.40;;;;;;;19.95;36.59;99742.97;6322060;28;20039;-76
2023/03/21 12:10:32;;;;;;;7.60;4.47;;;;;;;20.12;35.61;99741.22;6322560;28;20036;-71
2023/03/21 12:14:01;;;;;;;7.93;3.97;;;;;;;20.09;35.70;99737.06;6322573;28;20540;-76
2023/03/21 12:17:32;;;;;;;6.38;4.47;;;;;;;20.73;36.69;99733.81;6322258;28;20479;-77
2023/03/21 12:20:45;;;;;;;9.20;4.77;;;;;;;21.03;36.18;99732.28;6323197;28;20035;-76
2023/03/21 12:24:13;;;;;;;9.18;4.38;;;;;;;20.46;35.26;99724.34;6322146;28;20404;-76
2023/03/21 12:27:56;;;;;;;10.40;5.47;;;;;;;20.71;36.58;99723.41;6322121;28;20040;-76
2023/03/21 12:31:05;;;;;;;8.75;5.22;;;;;;;20.78;36.54;99714.78;6308909;28;20059;-71
2023/03/21 12:34:08;;;;;;;12.45;5.03;;;;;;;20.66;37.32;99719.59;6321790;28;20051;-71
2023/03/21 12:37:15;;;;;;;7.82;4.75;;;;;;;20.69;37.95;99706.81;6323174;28;20093;-71
2023/03/21 12:40:32;;;;;;;6.72;4.40;;;;;;;20.85;36.07;99707.78;6321804;28;20036;-72
2023/03/21 12:43:39;;;;;;;8.82;5.07;;;;;;;20.88;36.06;99705.63;6321661;28;20040;-77
2023/03/21 12:46:58;;;;;;;15.68;5.78;;;;;;;20.19;36.14;99699.84;6322621;28;20139;-71
2023/03/21 12:50:21;;;;;;;7.82;4.82;;;;;;;20.52;38.29;99695.34;6322427;28;20488;-76
2023/03/21 12:53:29;;;;;;;9.27;5.03;;;;;;;20.39;36.94;99687.09;6322711;28;20048;-76
2023/03/21 12:56:44;;;;;;;7.07;4.85;;;;;;;19.68;37.16;99681.38;6321626;28;20055;-71
2023/03/21 13:00:10;;;;;;;9.32;5.00;;;;;;;20.72;36.94;99673.84;6322323;28;20089;-71
2023/03/21 13:03:31;;;;;;;8.43;5.57;;;;;;;20.77;38.37;99678.63;6320924;28;20040;-72
2023/03/21 13:06:34;;;;;;;8.70;5.38;;;;;;;20.51;38.05;99669.88;6321081;28;20036;-71
2023/03/21 13:09:37;;;;;;;9.73;4.72;;;;;;;20.70;37.03;99670.53;6321093;28;20040;-76
2023/03/21 13:12:51;;;;;;;11.05;5.15;;;;;;;20.56;36.96;99663.25;6321246;28;20032;-71
2023/03/21 13:16:04;;;;;;;8.40;4.32;;;;;;;20.53;36.97;99662.56;6320922;28;20073;-71
2023/03/21 13:19:22;;;;;;;9.13;5.97;;;;;;;20.37;36.45;99654.63;6321893;28;20044;-70
2023/03/21 13:22:30;;;;;;;7.40;4.68;;;;;;;20.66;36.43;99658.63;6320799;28;20055;-71
2023/03/21 13:25:34;;;;;;;10.68;5.15;;;;;;;20.68;36.53;99651.31;6320652;28;20488;-70
2023/03/21 13:28:38;;;;;;;11.52;5.30;;;;;;;20.29;36.99;99650.16;6321947;28;20391;-76
2023/03/21 13:31:47;;;;;;;8.98;4.50;;;;;;;20.15;37.39;99645.53;6320440;28;20044;-71
2023/03/21 13:35:19;;;;;;;8.45;5.05;;;;;;;18.97;38.71;99653.47;6321734;28;20036;-76
2023/03/21 13:38:28;;;;;;;9.25;5.22;;;;;;;19.21;38.72;99660.69;6322128;28;20044;-76
2023/03/21 13:41:39;;;;;;;13.25;5.90;;;;;;;19.50;38.27;99654.19;6321595;28;20040;-70
2023/03/21 13:44:51;;;;;;;7.90;5.23;;;;;;;20.08;37.69;99650.66;6320572;28;20047;-76
2023/03/21 13:47:53;;;;;;;9.10;5.25;;;;;;;19.87;37.13;99645.84;6320058;28;20296;-76
2023/03/21 13:51:03;;;;;;;11.68;5.50;;;;;;;19.68;38.40;99640.81;6321525;28;20039;-76
2023/03/21 13:54:06;;;;;;;8.13;5.03;;;;;;;20.03;37.61;99637.06;6320270;28;20036;-76
2023/03/21 13:57:20;;;;;;;10.18;5.75;;;;;;;19.92;36.91;99642.72;6321455;28;20055;-76
2023/03/21 14:00:26;;;;;;;10.40;5.30;;;;;;;20.02;37.96;99634.63;6319845;28;20044;-76
2023/03/21 14:03:31;;;;;;;7.47;5.10;;;;;;;19.75;38.49;99619.84;6321071;28;20036;-71
2023/03/21 14:06:47;;;;;;;8.82;4.88;;;;;;;20.11;38.07;99630.97;6321036;28;20415;-71
2023/03/21 14:09:51;;;;;;;8.70;4.60;;;;;;;19.65;37.59;99628.75;6321071;28;20032;-72
2023/03/21 14:12:55;;;;;;;7.10;4.70;;;;;;;19.91;37.63;99622.50;6321045;28;20052;-70
2023/03/21 14:16:08;;;;;;;7.20;4.03;;;;;;;19.78;36.78;99622.19;6320921;28;20040;-76
2023/03/21 14:19:10;;;;;;;8.68;4.35;;;;;;;19.68;37.09;99624.94;6321105;28;20070;-76
2023/03/21 14:22:12;;;;;;;7.85;4.28;;;;;;;19.60;35.40;99622.28;6321242;28;20403;-76
2023/03/21 14:25:14;;;;;;;;;;;;;;;19.57;36.86;99619.97;6321432;28;20449;-72
2023/03/21 14:28:17;;;;;;;7.57;4.23;;;;;;;19.88;36.92;99614.91;6320840;28;20288;-71
2023/03/21 14:31:19;;;;;;;11.00;3.80;;;;;;;20.10;37.39;99619.56;6320638;28;20272;-70